sensor_id;sensor_type;location;lat;lon;timestamp;P1;durP1;ratioP1;P2;durP2;ratioP2
81265;SDS011;70748;52.510;13.410;2023-06-26T00:02:03;15.32;;;12.20;;
81265;SDS011;70748;52.510;13.410;2023-06-26T00:04:28;18.52;;;11.75;;
81265;SDS011;70748;52.510;13.410;2023-06-26T00:06:54;20.92;;;12.32;;
81265;SDS011;70748;52.510;13.410;2023-06-26T00:09:20;17.90;;;12.48;;
81265;SDS011;70748;52.510;13.410;2023-06-26T00:11:45;15.93;;;12.15;;
81265;SDS011;70748;52.510;13.410;2023-06-26T00:14:11;17.13;;;12.85;;
81265;SDS011;70748;52.510;13.410;2023-06-26T00:16:37;20.83;;;12.70;;
81265;SDS011;70748;52.510;13.410;2023-06-26T00:19:02;18.92;;;13.23;;
81265;SDS011;70748;52.510;13.410;2023-06-26T00:21:28;15.65;;;11.90;;
81265;SDS011;70748;52.510;13.410;2023-06-26T00:23:54;17.98;;;12.25;;
81265;SDS011;70748;52.510;13.410;2023-06-26T00:26:19;15.30;;;11.52;;
81265;SDS011;70748;52.510;13.410;2023-06-26T00:28:45;18.80;;;13.57;;
81265;SDS011;70748;52.510;13.410;2023-06-26T00:31:10;15.57;;;12.70;;
81265;SDS011;70748;52.510;13.410;2023-06-26T00:33:36;17.88;;;13.15;;
81265;SDS011;70748;52.510;13.410;2023-06-26T00:36:02;16.13;;;13.50;;
81265;SDS011;70748;52.510;13.410;2023-06-26T00:38:28;15.85;;;12.40;;
81265;SDS011;70748;52.510;13.410;2023-06-26T00:40:53;19.17;;;14.05;;
81265;SDS011;70748;52.510;13.410;2023-06-26T00:43:19;20.30;;;14.10;;
81265;SDS011;70748;52.510;13.410;2023-06-26T00:45:45;19.95;;;13.70;;
81265;SDS011;70748;52.510;13.410;2023-06-26T00:48:12;20.13;;;13.82;;
81265;SDS011;70748;52.510;13.410;2023-06-26T00:50:37;19.83;;;13.25;;
81265;SDS011;70748;52.510;13.410;2023-06-26T00:53:03;18.17;;;13.80;;
81265;SDS011;70748;52.510;13.410;2023-06-26T00:55:29;16.92;;;12.98;;
81265;SDS011;70748;52.510;13.410;2023-06-26T00:57:55;21.25;;;13.95;;
81265;SDS011;70748;52.510;13.410;2023-06-26T01:00:21;17.23;;;13.68;;
81265;SDS011;70748;52.510;13.410;2023-06-26T01:02:47;19.42;;;13.40;;
81265;SDS011;70748;52.510;13.410;2023-06-26T01:05:13;18.90;;;13.55;;
81265;SDS011;70748;52.510;13.410;2023-06-26T01:07:48;15.82;;;12.73;;
81265;SDS011;70748;52.510;13.410;2023-06-26T01:10:15;19.90;;;13.70;;
81265;SDS011;70748;52.510;13.410;2023-06-26T01:12:41;20.08;;;13.77;;
81265;SDS011;70748;52.510;13.410;2023-06-26T01:15:07;23.73;;;13.10;;
81265;SDS011;70748;52.510;13.410;2023-06-26T01:17:33;23.08;;;13.02;;
81265;SDS011;70748;52.510;13.410;2023-06-26T01:20:00;16.05;;;13.30;;
81265;SDS011;70748;52.510;13.410;2023-06-26T01:22:34;17.52;;;12.50;;
81265;SDS011;70748;52.510;13.410;2023-06-26T01:25:59;16.98;;;12.38;;
81265;SDS011;70748;52.510;13.410;2023-06-26T01:28:01;19.13;;;12.52;;
81265;SDS011;70748;52.510;13.410;2023-06-26T01:30:27;17.33;;;12.40;;
81265;SDS011;70748;52.510;13.410;2023-06-26T01:32:53;15.32;;;13.15;;
81265;SDS011;70748;52.510;13.410;2023-06-26T01:35:19;18.10;;;13.05;;
81265;SDS011;70748;52.510;13.410;2023-06-26T01:37:45;15.48;;;13.05;;
81265;SDS011;70748;52.510;13.410;2023-06-26T01:40:10;15.23;;;12.32;;
81265;SDS011;70748;52.510;13.410;2023-06-26T01:42:36;20.95;;;13.02;;
81265;SDS011;70748;52.510;13.410;2023-06-26T01:45:04;18.98;;;12.63;;
81265;SDS011;70748;52.510;13.410;2023-06-26T01:47:52;16.88;;;12.07;;
81265;SDS011;70748;52.510;13.410;2023-06-26T01:50:21;16.92;;;13.32;;
81265;SDS011;70748;52.510;13.410;2023-06-26T01:55:24;17.90;;;11.70;;
81265;SDS011;70748;52.510;13.410;2023-06-26T01:57:54;17.63;;;12.77;;
81265;SDS011;70748;52.510;13.410;2023-06-26T02:00:22;19.15;;;13.38;;
81265;SDS011;70748;52.510;13.410;2023-06-26T02:02:49;21.17;;;13.65;;
81265;SDS011;70748;52.510;13.410;2023-06-26T02:05:15;19.00;;;13.93;;
81265;SDS011;70748;52.510;13.410;2023-06-26T02:07:41;19.40;;;13.68;;
81265;SDS011;70748;52.510;13.410;2023-06-26T02:10:07;17.77;;;12.45;;
81265;SDS011;70748;52.510;13.410;2023-06-26T02:12:33;15.23;;;13.63;;
81265;SDS011;70748;52.510;13.410;2023-06-26T02:15:00;20.27;;;13.38;;
81265;SDS011;70748;52.510;13.410;2023-06-26T02:17:27;18.25;;;13.38;;
81265;SDS011;70748;52.510;13.410;2023-06-26T02:19:52;17.50;;;13.65;;
81265;SDS011;70748;52.510;13.410;2023-06-26T02:22:18;15.85;;;13.07;;
81265;SDS011;70748;52.510;13.410;2023-06-26T02:24:44;16.17;;;12.15;;
81265;SDS011;70748;52.510;13.410;2023-06-26T02:27:10;16.65;;;13.65;;
81265;SDS011;70748;52.510;13.410;2023-06-26T02:29:36;21.70;;;13.55;;
81265;SDS011;70748;52.510;13.410;2023-06-26T02:32:02;20.92;;;14.02;;
81265;SDS011;70748;52.510;13.410;2023-06-26T02:34:28;16.27;;;13.60;;
81265;SDS011;70748;52.510;13.410;2023-06-26T02:36:55;19.73;;;13.98;;
81265;SDS011;70748;52.510;13.410;2023-06-26T02:39:21;16.75;;;13.57;;
81265;SDS011;70748;52.510;13.410;2023-06-26T02:41:47;17.42;;;14.07;;
81265;SDS011;70748;52.510;13.410;2023-06-26T02:44:13;19.92;;;14.88;;
81265;SDS011;70748;52.510;13.410;2023-06-26T02:46:39;18.30;;;14.20;;
81265;SDS011;70748;52.510;13.410;2023-06-26T02:49:06;16.70;;;13.82;;
81265;SDS011;70748;52.510;13.410;2023-06-26T02:51:32;17.92;;;13.73;;
81265;SDS011;70748;52.510;13.410;2023-06-26T02:53:59;21.02;;;13.73;;
81265;SDS011;70748;52.510;13.410;2023-06-26T02:56:25;22.98;;;14.23;;
81265;SDS011;70748;52.510;13.410;2023-06-26T02:58:57;21.48;;;13.73;;
81265;SDS011;70748;52.510;13.410;2023-06-26T03:01:23;14.90;;;12.48;;
81265;SDS011;70748;52.510;13.410;2023-06-26T03:03:49;21.00;;;13.85;;
81265;SDS011;70748;52.510;13.410;2023-06-26T03:06:14;17.05;;;13.07;;
81265;SDS011;70748;52.510;13.410;2023-06-26T03:08:40;15.57;;;13.75;;
81265;SDS011;70748;52.510;13.410;2023-06-26T03:11:07;16.77;;;14.00;;
81265;SDS011;70748;52.510;13.410;2023-06-26T03:13:34;15.82;;;12.75;;
81265;SDS011;70748;52.510;13.410;2023-06-26T03:16:00;17.30;;;13.95;;
81265;SDS011;70748;52.510;13.410;2023-06-26T03:18:27;19.40;;;12.70;;
81265;SDS011;70748;52.510;13.410;2023-06-26T03:20:53;22.35;;;14.23;;
81265;SDS011;70748;52.510;13.410;2023-06-26T03:23:20;16.38;;;13.65;;
81265;SDS011;70748;52.510;13.410;2023-06-26T03:25:46;16.33;;;13.57;;
81265;SDS011;70748;52.510;13.410;2023-06-26T03:28:12;20.05;;;14.38;;
81265;SDS011;70748;52.510;13.410;2023-06-26T03:30:38;23.05;;;15.43;;
81265;SDS011;70748;52.510;13.410;2023-06-26T03:33:04;18.52;;;15.05;;
81265;SDS011;70748;52.510;13.410;2023-06-26T03:35:29;23.95;;;15.55;;
81265;SDS011;70748;52.510;13.410;2023-06-26T03:37:57;19.52;;;14.02;;
81265;SDS011;70748;52.510;13.410;2023-06-26T03:40:23;20.08;;;15.40;;
81265;SDS011;70748;52.510;13.410;2023-06-26T03:42:48;19.63;;;14.27;;
81265;SDS011;70748;52.510;13.410;2023-06-26T03:45:14;17.80;;;13.38;;
81265;SDS011;70748;52.510;13.410;2023-06-26T03:47:40;16.95;;;13.98;;
81265;SDS011;70748;52.510;13.410;2023-06-26T03:50:05;15.80;;;13.88;;
81265;SDS011;70748;52.510;13.410;2023-06-26T03:52:31;20.90;;;14.27;;
81265;SDS011;70748;52.510;13.410;2023-06-26T03:54:57;19.65;;;14.80;;
81265;SDS011;70748;52.510;13.410;2023-06-26T03:57:23;18.33;;;13.90;;
81265;SDS011;70748;52.510;13.410;2023-06-26T03:59:49;18.05;;;13.27;;
81265;SDS011;70748;52.510;13.410;2023-06-26T04:02:15;20.27;;;13.85;;
81265;SDS011;70748;52.510;13.410;2023-06-26T04:04:41;20.17;;;14.45;;
81265;SDS011;70748;52.510;13.410;2023-06-26T04:07:06;19.05;;;13.95;;
81265;SDS011;70748;52.510;13.410;2023-06-26T04:09:32;17.08;;;13.68;;
81265;SDS011;70748;52.510;13.410;2023-06-26T04:11:58;21.50;;;14.05;;
81265;SDS011;70748;52.510;13.410;2023-06-26T04:14:23;17.50;;;14.05;;
81265;SDS011;70748;52.510;13.410;2023-06-26T04:16:49;16.67;;;14.00;;
81265;SDS011;70748;52.510;13.410;2023-06-26T04:19:15;17.35;;;14.60;;
81265;SDS011;70748;52.510;13.410;2023-06-26T04:21:40;18.40;;;14.55;;
81265;SDS011;70748;52.510;13.410;2023-06-26T04:24:06;18.75;;;14.32;;
81265;SDS011;70748;52.510;13.410;2023-06-26T04:26:32;17.02;;;14.02;;
81265;SDS011;70748;52.510;13.410;2023-06-26T04:28:58;19.27;;;14.30;;
81265;SDS011;70748;52.510;13.410;2023-06-26T04:31:24;19.77;;;13.98;;
81265;SDS011;70748;52.510;13.410;2023-06-26T04:33:50;20.85;;;14.20;;
81265;SDS011;70748;52.510;13.410;2023-06-26T04:36:16;19.80;;;13.68;;
81265;SDS011;70748;52.510;13.410;2023-06-26T04:38:42;18.30;;;13.00;;
81265;SDS011;70748;52.510;13.410;2023-06-26T04:41:07;18.55;;;12.82;;
81265;SDS011;70748;52.510;13.410;2023-06-26T04:43:33;19.08;;;14.63;;
81265;SDS011;70748;52.510;13.410;2023-06-26T04:45:59;18.52;;;13.75;;
81265;SDS011;70748;52.510;13.410;2023-06-26T04:48:25;17.20;;;13.25;;
81265;SDS011;70748;52.510;13.410;2023-06-26T04:50:54;18.05;;;13.23;;
81265;SDS011;70748;52.510;13.410;2023-06-26T04:53:21;17.83;;;13.65;;
81265;SDS011;70748;52.510;13.410;2023-06-26T04:55:48;19.88;;;13.57;;
81265;SDS011;70748;52.510;13.410;2023-06-26T04:58:14;15.98;;;13.07;;
81265;SDS011;70748;52.510;13.410;2023-06-26T05:00:41;22.63;;;14.07;;
81265;SDS011;70748;52.510;13.410;2023-06-26T05:03:13;17.40;;;13.38;;
81265;SDS011;70748;52.510;13.410;2023-06-26T05:05:41;19.92;;;13.75;;
81265;SDS011;70748;52.510;13.410;2023-06-26T05:10:40;17.38;;;12.75;;
81265;SDS011;70748;52.510;13.410;2023-06-26T05:13:06;17.98;;;13.43;;
81265;SDS011;70748;52.510;13.410;2023-06-26T05:15:32;17.80;;;12.95;;
81265;SDS011;70748;52.510;13.410;2023-06-26T05:17:57;15.82;;;12.93;;
81265;SDS011;70748;52.510;13.410;2023-06-26T05:20:23;20.95;;;13.75;;
81265;SDS011;70748;52.510;13.410;2023-06-26T05:22:49;16.80;;;12.80;;
81265;SDS011;70748;52.510;13.410;2023-06-26T05:25:15;16.80;;;12.13;;
81265;SDS011;70748;52.510;13.410;2023-06-26T05:27:43;17.20;;;12.82;;
81265;SDS011;70748;52.510;13.410;2023-06-26T05:30:09;18.33;;;12.50;;
81265;SDS011;70748;52.510;13.410;2023-06-26T05:32:37;18.40;;;13.15;;
81265;SDS011;70748;52.510;13.410;2023-06-26T05:35:04;20.48;;;13.05;;
81265;SDS011;70748;52.510;13.410;2023-06-26T05:37:31;15.38;;;13.25;;
81265;SDS011;70748;52.510;13.410;2023-06-26T05:39:58;17.95;;;13.10;;
81265;SDS011;70748;52.510;13.410;2023-06-26T05:42:24;14.80;;;12.43;;
81265;SDS011;70748;52.510;13.410;2023-06-26T05:44:51;21.75;;;12.32;;
81265;SDS011;70748;52.510;13.410;2023-06-26T05:47:16;16.02;;;11.65;;
81265;SDS011;70748;52.510;13.410;2023-06-26T05:49:42;15.25;;;11.80;;
81265;SDS011;70748;52.510;13.410;2023-06-26T05:52:08;16.08;;;11.57;;
81265;SDS011;70748;52.510;13.410;2023-06-26T05:54:34;18.27;;;11.60;;
81265;SDS011;70748;52.510;13.410;2023-06-26T05:57:00;16.13;;;11.27;;
81265;SDS011;70748;52.510;13.410;2023-06-26T05:59:27;21.13;;;10.05;;
81265;SDS011;70748;52.510;13.410;2023-06-26T06:01:54;17.83;;;9.77;;
81265;SDS011;70748;52.510;13.410;2023-06-26T06:04:19;13.45;;;9.85;;
81265;SDS011;70748;52.510;13.410;2023-06-26T06:06:45;16.45;;;10.23;;
81265;SDS011;70748;52.510;13.410;2023-06-26T06:09:11;15.35;;;10.25;;
81265;SDS011;70748;52.510;13.410;2023-06-26T06:11:36;20.55;;;8.85;;
81265;SDS011;70748;52.510;13.410;2023-06-26T06:14:02;11.10;;;8.63;;
81265;SDS011;70748;52.510;13.410;2023-06-26T06:16:28;14.32;;;9.73;;
81265;SDS011;70748;52.510;13.410;2023-06-26T06:18:54;17.08;;;9.30;;
81265;SDS011;70748;52.510;13.410;2023-06-26T06:21:20;13.20;;;8.68;;
81265;SDS011;70748;52.510;13.410;2023-06-26T06:23:46;15.88;;;8.63;;
81265;SDS011;70748;52.510;13.410;2023-06-26T06:26:12;13.45;;;9.38;;
81265;SDS011;70748;52.510;13.410;2023-06-26T06:28:38;12.40;;;8.75;;
81265;SDS011;70748;52.510;13.410;2023-06-26T06:31:05;17.55;;;8.25;;
81265;SDS011;70748;52.510;13.410;2023-06-26T06:33:31;13.38;;;7.82;;
81265;SDS011;70748;52.510;13.410;2023-06-26T06:35:56;12.25;;;8.25;;
81265;SDS011;70748;52.510;13.410;2023-06-26T06:38:22;10.43;;;8.43;;
81265;SDS011;70748;52.510;13.410;2023-06-26T06:40:48;11.60;;;7.75;;
81265;SDS011;70748;52.510;13.410;2023-06-26T06:43:14;13.07;;;8.18;;
81265;SDS011;70748;52.510;13.410;2023-06-26T06:45:43;14.25;;;7.45;;
81265;SDS011;70748;52.510;13.410;2023-06-26T06:48:12;11.52;;;7.55;;
81265;SDS011;70748;52.510;13.410;2023-06-26T06:53:03;13.93;;;7.13;;
81265;SDS011;70748;52.510;13.410;2023-06-26T06:55:29;11.13;;;7.00;;
81265;SDS011;70748;52.510;13.410;2023-06-26T06:57:54;9.38;;;7.57;;
81265;SDS011;70748;52.510;13.410;2023-06-26T07:00:20;13.77;;;7.80;;
81265;SDS011;70748;52.510;13.410;2023-06-26T07:02:46;7.80;;;6.93;;
81265;SDS011;70748;52.510;13.410;2023-06-26T07:05:12;7.57;;;6.53;;
81265;SDS011;70748;52.510;13.410;2023-06-26T07:07:38;10.90;;;7.38;;
81265;SDS011;70748;52.510;13.410;2023-06-26T07:12:34;12.40;;;7.00;;
81265;SDS011;70748;52.510;13.410;2023-06-26T07:15:01;7.20;;;6.43;;
81265;SDS011;70748;52.510;13.410;2023-06-26T07:17:29;8.77;;;6.97;;
81265;SDS011;70748;52.510;13.410;2023-06-26T07:19:55;8.77;;;6.53;;
81265;SDS011;70748;52.510;13.410;2023-06-26T07:22:21;15.95;;;6.57;;
81265;SDS011;70748;52.510;13.410;2023-06-26T07:24:47;8.10;;;6.60;;
81265;SDS011;70748;52.510;13.410;2023-06-26T07:27:16;11.13;;;6.00;;
81265;SDS011;70748;52.510;13.410;2023-06-26T07:29:45;8.73;;;6.35;;
81265;SDS011;70748;52.510;13.410;2023-06-26T07:32:11;12.57;;;6.30;;
81265;SDS011;70748;52.510;13.410;2023-06-26T07:34:37;11.43;;;6.10;;
81265;SDS011;70748;52.510;13.410;2023-06-26T07:37:03;14.82;;;6.55;;
81265;SDS011;70748;52.510;13.410;2023-06-26T07:39:29;12.67;;;6.93;;
81265;SDS011;70748;52.510;13.410;2023-06-26T07:41:55;7.65;;;6.55;;
81265;SDS011;70748;52.510;13.410;2023-06-26T07:44:23;16.48;;;6.57;;
81265;SDS011;70748;52.510;13.410;2023-06-26T07:46:48;7.23;;;6.23;;
81265;SDS011;70748;52.510;13.410;2023-06-26T07:49:14;12.00;;;6.10;;
81265;SDS011;70748;52.510;13.410;2023-06-26T07:51:40;14.33;;;6.23;;
81265;SDS011;70748;52.510;13.410;2023-06-26T07:54:05;8.67;;;6.07;;
81265;SDS011;70748;52.510;13.410;2023-06-26T07:56:34;12.47;;;6.03;;
81265;SDS011;70748;52.510;13.410;2023-06-26T08:01:43;11.20;;;5.72;;
81265;SDS011;70748;52.510;13.410;2023-06-26T08:04:09;8.77;;;6.00;;
81265;SDS011;70748;52.510;13.410;2023-06-26T08:06:36;10.48;;;5.50;;
81265;SDS011;70748;52.510;13.410;2023-06-26T08:09:05;7.55;;;6.03;;
81265;SDS011;70748;52.510;13.410;2023-06-26T08:11:32;7.00;;;5.20;;
81265;SDS011;70748;52.510;13.410;2023-06-26T08:14:01;8.85;;;5.25;;
81265;SDS011;70748;52.510;13.410;2023-06-26T08:16:26;8.00;;;5.47;;
81265;SDS011;70748;52.510;13.410;2023-06-26T08:18:52;10.67;;;5.47;;
81265;SDS011;70748;52.510;13.410;2023-06-26T08:21:18;9.17;;;5.27;;
81265;SDS011;70748;52.510;13.410;2023-06-26T08:23:43;5.80;;;5.20;;
81265;SDS011;70748;52.510;13.410;2023-06-26T08:26:09;13.00;;;5.10;;
81265;SDS011;70748;52.510;13.410;2023-06-26T08:28:35;8.17;;;5.30;;
81265;SDS011;70748;52.510;13.410;2023-06-26T08:31:00;5.77;;;5.27;;
81265;SDS011;70748;52.510;13.410;2023-06-26T08:33:26;8.93;;;5.03;;
81265;SDS011;70748;52.510;13.410;2023-06-26T08:35:52;6.13;;;5.30;;
81265;SDS011;70748;52.510;13.410;2023-06-26T08:38:17;5.33;;;4.83;;
81265;SDS011;70748;52.510;13.410;2023-06-26T08:40:46;6.85;;;4.90;;
81265;SDS011;70748;52.510;13.410;2023-06-26T08:43:12;5.78;;;4.78;;
81265;SDS011;70748;52.510;13.410;2023-06-26T08:45:37;5.53;;;5.03;;
81265;SDS011;70748;52.510;13.410;2023-06-26T08:48:03;7.22;;;5.22;;
81265;SDS011;70748;52.510;13.410;2023-06-26T08:50:33;9.00;;;5.15;;
81265;SDS011;70748;52.510;13.410;2023-06-26T08:53:10;5.13;;;4.63;;
81265;SDS011;70748;52.510;13.410;2023-06-26T08:55:41;7.38;;;4.93;;
81265;SDS011;70748;52.510;13.410;2023-06-26T08:58:07;7.05;;;5.10;;
81265;SDS011;70748;52.510;13.410;2023-06-26T09:00:34;5.03;;;4.53;;
81265;SDS011;70748;52.510;13.410;2023-06-26T09:02:59;11.40;;;5.30;;
81265;SDS011;70748;52.510;13.410;2023-06-26T09:05:28;5.53;;;5.10;;
81265;SDS011;70748;52.510;13.410;2023-06-26T09:07:54;5.60;;;4.60;;
81265;SDS011;70748;52.510;13.410;2023-06-26T09:10:21;7.35;;;4.78;;
81265;SDS011;70748;52.510;13.410;2023-06-26T09:12:47;6.30;;;4.72;;
81265;SDS011;70748;52.510;13.410;2023-06-26T09:15:14;8.35;;;5.10;;
81265;SDS011;70748;52.510;13.410;2023-06-26T09:17:40;5.88;;;4.70;;
81265;SDS011;70748;52.510;13.410;2023-06-26T09:20:07;5.55;;;4.80;;
81265;SDS011;70748;52.510;13.410;2023-06-26T09:22:33;5.07;;;4.68;;
81265;SDS011;70748;52.510;13.410;2023-06-26T09:25:03;6.97;;;4.68;;
81265;SDS011;70748;52.510;13.410;2023-06-26T09:27:30;8.75;;;4.80;;
81265;SDS011;70748;52.510;13.410;2023-06-26T09:29:56;7.63;;;4.47;;
81265;SDS011;70748;52.510;13.410;2023-06-26T09:32:24;5.57;;;4.82;;
81265;SDS011;70748;52.510;13.410;2023-06-26T09:37:17;4.93;;;4.43;;
81265;SDS011;70748;52.510;13.410;2023-06-26T09:39:43;7.40;;;4.80;;
81265;SDS011;70748;52.510;13.410;2023-06-26T09:42:09;9.93;;;4.60;;
81265;SDS011;70748;52.510;13.410;2023-06-26T09:44:35;5.72;;;4.68;;
81265;SDS011;70748;52.510;13.410;2023-06-26T09:47:01;5.88;;;4.20;;
81265;SDS011;70748;52.510;13.410;2023-06-26T09:49:29;5.50;;;4.90;;
81265;SDS011;70748;52.510;13.410;2023-06-26T09:51:56;9.07;;;4.55;;
81265;SDS011;70748;52.510;13.410;2023-06-26T09:54:21;5.93;;;4.82;;
81265;SDS011;70748;52.510;13.410;2023-06-26T09:56:48;7.60;;;4.90;;
81265;SDS011;70748;52.510;13.410;2023-06-26T09:59:14;5.80;;;5.20;;
81265;SDS011;70748;52.510;13.410;2023-06-26T10:01:41;7.63;;;5.13;;
81265;SDS011;70748;52.510;13.410;2023-06-26T10:04:10;6.70;;;4.90;;
81265;SDS011;70748;52.510;13.410;2023-06-26T10:06:41;7.30;;;4.82;;
81265;SDS011;70748;52.510;13.410;2023-06-26T10:09:17;6.25;;;4.82;;
81265;SDS011;70748;52.510;13.410;2023-06-26T10:12:18;11.57;;;4.82;;
81265;SDS011;70748;52.510;13.410;2023-06-26T10:14:41;6.70;;;5.25;;
81265;SDS011;70748;52.510;13.410;2023-06-26T10:17:09;7.00;;;5.43;;
81265;SDS011;70748;52.510;13.410;2023-06-26T10:19:37;6.47;;;4.82;;
81265;SDS011;70748;52.510;13.410;2023-06-26T10:22:05;5.03;;;4.63;;
81265;SDS011;70748;52.510;13.410;2023-06-26T10:24:33;7.18;;;4.63;;
81265;SDS011;70748;52.510;13.410;2023-06-26T10:27:03;6.30;;;4.70;;
81265;SDS011;70748;52.510;13.410;2023-06-26T10:29:35;6.28;;;4.47;;
81265;SDS011;70748;52.510;13.410;2023-06-26T10:32:02;6.15;;;4.28;;
81265;SDS011;70748;52.510;13.410;2023-06-26T10:34:30;5.18;;;4.65;;
81265;SDS011;70748;52.510;13.410;2023-06-26T10:39:26;4.72;;;4.22;;
81265;SDS011;70748;52.510;13.410;2023-06-26T10:41:55;5.18;;;4.68;;
81265;SDS011;70748;52.510;13.410;2023-06-26T10:44:41;5.28;;;4.78;;
81265;SDS011;70748;52.510;13.410;2023-06-26T10:47:08;5.45;;;4.50;;
81265;SDS011;70748;52.510;13.410;2023-06-26T10:52:01;12.30;;;4.65;;
81265;SDS011;70748;52.510;13.410;2023-06-26T10:56:54;8.15;;;4.65;;
81265;SDS011;70748;52.510;13.410;2023-06-26T10:59:24;5.05;;;4.55;;
81265;SDS011;70748;52.510;13.410;2023-06-26T11:01:57;8.50;;;4.55;;
81265;SDS011;70748;52.510;13.410;2023-06-26T11:09:56;5.28;;;4.57;;
81265;SDS011;70748;52.510;13.410;2023-06-26T11:12:41;6.25;;;4.53;;
81265;SDS011;70748;52.510;13.410;2023-06-26T11:15:09;5.90;;;5.18;;
81265;SDS011;70748;52.510;13.410;2023-06-26T11:17:36;5.55;;;4.60;;
81265;SDS011;70748;52.510;13.410;2023-06-26T11:20:06;5.60;;;4.70;;
81265;SDS011;70748;52.510;13.410;2023-06-26T11:22:37;5.78;;;5.18;;
81265;SDS011;70748;52.510;13.410;2023-06-26T11:25:04;6.07;;;4.50;;
81265;SDS011;70748;52.510;13.410;2023-06-26T11:30:03;5.50;;;4.88;;
81265;SDS011;70748;52.510;13.410;2023-06-26T11:32:30;5.07;;;4.68;;
81265;SDS011;70748;52.510;13.410;2023-06-26T11:34:57;7.72;;;5.10;;
81265;SDS011;70748;52.510;13.410;2023-06-26T11:37:24;10.02;;;4.95;;
81265;SDS011;70748;52.510;13.410;2023-06-26T11:39:50;5.85;;;4.82;;
81265;SDS011;70748;52.510;13.410;2023-06-26T11:42:21;5.72;;;5.05;;
81265;SDS011;70748;52.510;13.410;2023-06-26T11:44:49;7.00;;;5.45;;
81265;SDS011;70748;52.510;13.410;2023-06-26T11:47:18;9.47;;;5.50;;
81265;SDS011;70748;52.510;13.410;2023-06-26T11:49:45;10.85;;;5.18;;
81265;SDS011;70748;52.510;13.410;2023-06-26T11:52:12;6.43;;;5.20;;
81265;SDS011;70748;52.510;13.410;2023-06-26T11:59:39;5.83;;;5.33;;
81265;SDS011;70748;52.510;13.410;2023-06-26T12:02:06;5.75;;;4.95;;
81265;SDS011;70748;52.510;13.410;2023-06-26T12:04:34;7.22;;;5.15;;
81265;SDS011;70748;52.510;13.410;2023-06-26T12:07:01;5.90;;;5.07;;
81265;SDS011;70748;52.510;13.410;2023-06-26T12:09:30;6.85;;;5.20;;
81265;SDS011;70748;52.510;13.410;2023-06-26T12:11:58;13.15;;;5.25;;
81265;SDS011;70748;52.510;13.410;2023-06-26T12:14:25;10.82;;;5.13;;
81265;SDS011;70748;52.510;13.410;2023-06-26T12:16:53;5.47;;;4.97;;
81265;SDS011;70748;52.510;13.410;2023-06-26T12:19:24;5.78;;;5.13;;
81265;SDS011;70748;52.510;13.410;2023-06-26T12:21:53;7.50;;;5.25;;
81265;SDS011;70748;52.510;13.410;2023-06-26T12:24:21;6.47;;;4.97;;
81265;SDS011;70748;52.510;13.410;2023-06-26T12:26:54;5.78;;;5.28;;
81265;SDS011;70748;52.510;13.410;2023-06-26T12:29:33;5.83;;;5.33;;
81265;SDS011;70748;52.510;13.410;2023-06-26T12:31:59;7.15;;;5.20;;
81265;SDS011;70748;52.510;13.410;2023-06-26T12:34:30;5.55;;;5.03;;
81265;SDS011;70748;52.510;13.410;2023-06-26T12:37:04;5.95;;;5.32;;
81265;SDS011;70748;52.510;13.410;2023-06-26T12:39:48;5.65;;;5.07;;
81265;SDS011;70748;52.510;13.410;2023-06-26T12:42:21;10.85;;;5.20;;
81265;SDS011;70748;52.510;13.410;2023-06-26T12:44:48;6.95;;;5.80;;
81265;SDS011;70748;52.510;13.410;2023-06-26T12:47:18;10.63;;;5.50;;
81265;SDS011;70748;52.510;13.410;2023-06-26T12:49:52;6.35;;;5.47;;
81265;SDS011;70748;52.510;13.410;2023-06-26T12:52:18;6.40;;;5.07;;
81265;SDS011;70748;52.510;13.410;2023-06-26T12:54:45;8.85;;;5.20;;
81265;SDS011;70748;52.510;13.410;2023-06-26T12:57:12;9.98;;;5.72;;
81265;SDS011;70748;52.510;13.410;2023-06-26T12:59:41;7.40;;;5.80;;
81265;SDS011;70748;52.510;13.410;2023-06-26T13:02:07;6.50;;;5.82;;
81265;SDS011;70748;52.510;13.410;2023-06-26T13:04:33;7.10;;;6.30;;
81265;SDS011;70748;52.510;13.410;2023-06-26T13:09:26;6.90;;;6.10;;
81265;SDS011;70748;52.510;13.410;2023-06-26T13:11:52;5.90;;;5.40;;
81265;SDS011;70748;52.510;13.410;2023-06-26T13:14:18;6.90;;;6.20;;
81265;SDS011;70748;52.510;13.410;2023-06-26T13:16:44;6.20;;;5.63;;
81265;SDS011;70748;52.510;13.410;2023-06-26T13:19:10;12.45;;;6.35;;
81265;SDS011;70748;52.510;13.410;2023-06-26T13:21:36;11.57;;;5.85;;
81265;SDS011;70748;52.510;13.410;2023-06-26T13:24:02;9.45;;;5.78;;
81265;SDS011;70748;52.510;13.410;2023-06-26T13:26:30;7.13;;;5.85;;
81265;SDS011;70748;52.510;13.410;2023-06-26T13:28:57;8.57;;;5.90;;
81265;SDS011;70748;52.510;13.410;2023-06-26T13:31:23;10.93;;;6.00;;
81265;SDS011;70748;52.510;13.410;2023-06-26T13:33:50;7.38;;;6.22;;
81265;SDS011;70748;52.510;13.410;2023-06-26T13:36:17;7.45;;;6.13;;
81265;SDS011;70748;52.510;13.410;2023-06-26T13:38:43;10.32;;;6.15;;
81265;SDS011;70748;52.510;13.410;2023-06-26T13:41:09;7.25;;;6.15;;
81265;SDS011;70748;52.510;13.410;2023-06-26T13:43:34;7.22;;;6.38;;
81265;SDS011;70748;52.510;13.410;2023-06-26T13:46:00;9.25;;;6.60;;
81265;SDS011;70748;52.510;13.410;2023-06-26T13:48:27;13.20;;;5.85;;
81265;SDS011;70748;52.510;13.410;2023-06-26T13:50:53;8.23;;;6.45;;
81265;SDS011;70748;52.510;13.410;2023-06-26T13:53:19;8.88;;;6.00;;
81265;SDS011;70748;52.510;13.410;2023-06-26T13:55:45;10.73;;;6.47;;
81265;SDS011;70748;52.510;13.410;2023-06-26T13:58:11;8.43;;;6.32;;
81265;SDS011;70748;52.510;13.410;2023-06-26T14:00:38;7.93;;;6.20;;
81265;SDS011;70748;52.510;13.410;2023-06-26T14:03:04;6.40;;;5.75;;
81265;SDS011;70748;52.510;13.410;2023-06-26T14:05:32;6.95;;;6.25;;
81265;SDS011;70748;52.510;13.410;2023-06-26T14:08:02;6.88;;;6.18;;
81265;SDS011;70748;52.510;13.410;2023-06-26T14:10:29;7.00;;;5.78;;
81265;SDS011;70748;52.510;13.410;2023-06-26T14:12:56;11.55;;;6.20;;
81265;SDS011;70748;52.510;13.410;2023-06-26T14:15:22;8.45;;;6.40;;
81265;SDS011;70748;52.510;13.410;2023-06-26T14:17:48;15.75;;;6.57;;
81265;SDS011;70748;52.510;13.410;2023-06-26T14:20:15;9.20;;;6.47;;
81265;SDS011;70748;52.510;13.410;2023-06-26T14:22:41;21.33;;;5.85;;
81265;SDS011;70748;52.510;13.410;2023-06-26T14:25:09;21.02;;;6.32;;
81265;SDS011;70748;52.510;13.410;2023-06-26T14:27:35;23.17;;;5.60;;
81265;SDS011;70748;52.510;13.410;2023-06-26T14:30:05;37.15;;;7.70;;
81265;SDS011;70748;52.510;13.410;2023-06-26T14:32:32;22.80;;;6.20;;
81265;SDS011;70748;52.510;13.410;2023-06-26T14:34:58;13.93;;;5.90;;
81265;SDS011;70748;52.510;13.410;2023-06-26T14:37:25;15.40;;;5.85;;
81265;SDS011;70748;52.510;13.410;2023-06-26T14:39:50;10.70;;;5.03;;
81265;SDS011;70748;52.510;13.410;2023-06-26T14:42:16;13.93;;;5.22;;
81265;SDS011;70748;52.510;13.410;2023-06-26T14:44:42;12.70;;;5.65;;
81265;SDS011;70748;52.510;13.410;2023-06-26T14:47:08;10.13;;;5.55;;
81265;SDS011;70748;52.510;13.410;2023-06-26T14:49:33;11.85;;;7.28;;
81265;SDS011;70748;52.510;13.410;2023-06-26T14:51:59;9.50;;;6.07;;
81265;SDS011;70748;52.510;13.410;2023-06-26T14:54:25;10.45;;;5.95;;
81265;SDS011;70748;52.510;13.410;2023-06-26T14:56:50;11.25;;;6.43;;
81265;SDS011;70748;52.510;13.410;2023-06-26T14:59:16;16.00;;;7.93;;